createdAt,value
2022-08-22T00:00:16.789Z,52.38
2022-08-22T00:03:01.449Z,44.20
2022-08-22T00:03:02.259Z,43.50
2022-08-22T00:03:11.075Z,51.80
2022-08-22T00:03:17.450Z,52.03
2022-08-22T00:05:56.009Z,53.06
2022-08-22T00:08:33.649Z,53.12
2022-08-22T00:11:16.251Z,53.52
2022-08-22T00:13:52.730Z,54.21
2022-08-22T00:16:35.279Z,54.01
2022-08-22T00:19:02.902Z,54.03
2022-08-22T00:21:36.659Z,53.19
2022-08-22T00:24:29.122Z,51.37
2022-08-22T00:27:06.063Z,50.99
2022-08-22T00:29:47.356Z,51.58
2022-08-22T00:32:42.380Z,50.74
2022-08-22T00:35:23.828Z,51.01
2022-08-22T00:38:04.955Z,51.81
2022-08-22T00:40:34.460Z,52.46
2022-08-22T00:43:10.143Z,52.65
2022-08-22T00:45:45.936Z,51.41
2022-08-22T00:48:22.166Z,52.41
2022-08-22T00:51:05.405Z,52.17
2022-08-22T00:53:38.062Z,51.64
2022-08-22T00:56:48.470Z,50.16
2022-08-22T00:59:39.446Z,51.06
2022-08-22T01:02:21.942Z,51.05
2022-08-22T01:05:11.688Z,52.72
2022-08-22T01:07:58.216Z,52.66
2022-08-22T01:10:46.306Z,52.76
2022-08-22T01:13:36.721Z,53.63
2022-08-22T01:16:34.314Z,52.67
2022-08-22T01:19:18.686Z,53.48
2022-08-22T01:22:01.229Z,52.54
2022-08-22T01:25:21.909Z,51.66
2022-08-22T01:28:20.358Z,51.24
2022-08-22T01:31:14.308Z,51.59
2022-08-22T01:34:38.504Z,52.40
2022-08-22T01:37:17.776Z,52.93
2022-08-22T01:40:05.668Z,54.19
2022-08-22T01:42:41.964Z,54.63
2022-08-22T01:45:14.621Z,55.41
2022-08-22T01:47:55.688Z,55.26
2022-08-22T01:50:36.917Z,55.65
2022-08-22T01:53:38.843Z,56.93
2022-08-22T01:56:19.215Z,57.84
2022-08-22T01:59:01.806Z,56.71
2022-08-22T02:01:57.944Z,54.68
2022-08-22T02:04:38.791Z,52.82
2022-08-22T02:07:05.496Z,54.20
2022-08-22T02:09:32.167Z,53.56
2022-08-22T02:12:21.667Z,53.04
2022-08-22T02:15:15.065Z,53.98
2022-08-22T02:17:55.917Z,53.23
2022-08-22T02:20:28.902Z,53.13
2022-08-22T02:23:28.152Z,53.28
2022-08-22T02:25:58.866Z,53.44
2022-08-22T02:28:38.057Z,52.98
2022-08-22T02:31:16.539Z,54.92
2022-08-22T02:33:46.633Z,56.04
2022-08-22T02:36:44.468Z,55.71
2022-08-22T02:39:34.759Z,57.08
2022-08-22T02:42:40.455Z,57.82
2022-08-22T02:45:24.243Z,58.13
2022-08-22T02:47:55.076Z,58.81
2022-08-22T02:50:55.150Z,60.03
2022-08-22T02:53:34.118Z,60.42
2022-08-22T02:56:08.682Z,60.13
2022-08-22T02:58:53.601Z,61.00
2022-08-22T03:01:45.504Z,60.19
2022-08-22T03:04:46.574Z,60.46
2022-08-22T03:07:22.626Z,60.88
2022-08-22T03:10:13.965Z,60.47
2022-08-22T03:13:02.577Z,59.26
2022-08-22T03:15:38.072Z,59.38
2022-08-22T03:18:31.493Z,59.17
2022-08-22T03:21:11.738Z,59.38
2022-08-22T03:23:44.512Z,59.92
2022-08-22T03:26:14.403Z,59.79
2022-08-22T03:28:52.631Z,59.85
2022-08-22T03:31:26.820Z,60.38
2022-08-22T03:34:20.329Z,60.31
2022-08-22T03:37:05.929Z,60.80
2022-08-22T03:39:44.127Z,61.18
2022-08-22T03:42:35.555Z,61.20
2022-08-22T03:45:18.131Z,61.83
2022-08-22T03:48:16.527Z,62.23
2022-08-22T03:51:17.593Z,61.77
2022-08-22T03:54:12.170Z,62.36
2022-08-22T03:56:41.638Z,62.36
2022-08-22T03:59:11.297Z,62.33
2022-08-22T04:01:53.713Z,62.41
2022-08-22T04:04:53.028Z,62.23
2022-08-22T04:07:48.976Z,62.46
2022-08-22T04:11:10.233Z,62.34
2022-08-22T04:13:39.384Z,62.73
2022-08-22T04:16:20.766Z,61.98
2022-08-22T04:19:05.770Z,62.11
2022-08-22T04:21:53.016Z,62.61
2022-08-22T04:24:52.234Z,62.55
2022-08-22T04:27:58.335Z,62.92
2022-08-22T04:31:01.581Z,62.97
2022-08-22T04:33:35.091Z,62.54
2022-08-22T04:36:30.213Z,61.85
2022-08-22T04:39:18.416Z,61.69
2022-08-22T04:41:50.417Z,62.36
2022-08-22T04:44:31.933Z,60.92
2022-08-22T04:47:24.588Z,60.78
2022-08-22T04:49:59.686Z,61.56
2022-08-22T04:52:41.109Z,62.10
2022-08-22T04:55:22.880Z,62.87
2022-08-22T04:58:00.197Z,62.49
2022-08-22T05:00:39.509Z,62.33
2022-08-22T05:03:12.203Z,62.03
2022-08-22T05:05:43.114Z,62.14
2022-08-22T05:08:15.072Z,61.98
2022-08-22T05:10:46.491Z,62.05
2022-08-22T05:13:32.591Z,62.25
2022-08-22T05:16:04.327Z,62.53
2022-08-22T05:18:42.212Z,61.76
2022-08-22T05:21:13.806Z,62.44
2022-08-22T05:23:51.202Z,61.69
2022-08-22T05:26:20.287Z,61.99
2022-08-22T05:28:56.399Z,61.66
2022-08-22T05:31:27.822Z,61.95
2022-08-22T05:34:01.217Z,60.89
2022-08-22T05:36:31.695Z,61.29
2022-08-22T05:39:08.804Z,61.20
2022-08-22T05:41:40.754Z,60.88
2022-08-22T05:44:18.436Z,60.23
2022-08-22T05:46:50.310Z,59.38
2022-08-22T05:49:27.916Z,59.41
2022-08-22T05:52:07.888Z,59.08
2022-08-22T05:54:49.052Z,59.45
2022-08-22T05:57:37.199Z,58.62
2022-08-22T06:00:11.136Z,57.94
2022-08-22T06:02:54.737Z,57.93
2022-08-22T06:05:33.469Z,57.80
2022-08-22T06:08:11.750Z,56.99
2022-08-22T06:10:57.731Z,57.14
2022-08-22T06:13:34.906Z,57.42
2022-08-22T06:16:13.845Z,56.29
2022-08-22T06:18:43.399Z,56.73
2022-08-22T06:21:26.424Z,56.72
2022-08-22T06:23:57.687Z,56.42
2022-08-22T06:26:38.255Z,56.37
2022-08-22T06:29:08.828Z,56.21
2022-08-22T06:31:47.042Z,55.66
2022-08-22T06:34:35.639Z,55.53
2022-08-22T06:37:05.976Z,56.36
2022-08-22T06:39:36.696Z,56.04
2022-08-22T06:42:13.346Z,55.61
2022-08-22T06:44:47.798Z,55.65
2022-08-22T06:47:24.908Z,56.08
2022-08-22T06:50:02.021Z,55.82
2022-08-22T06:52:32.714Z,56.51
2022-08-22T06:55:05.744Z,56.46
2022-08-22T06:58:03.669Z,55.54
2022-08-22T07:00:34.499Z,54.83
2022-08-22T07:03:20.374Z,53.96
2022-08-22T07:05:47.469Z,54.83
2022-08-22T07:08:19.055Z,53.80
2022-08-22T07:10:56.458Z,53.80
2022-08-22T07:13:25.224Z,54.50
2022-08-22T07:15:56.418Z,53.77
2022-08-22T07:18:27.831Z,54.43
2022-08-22T07:20:59.269Z,53.93
2022-08-22T07:23:33.396Z,54.59
2022-08-22T07:26:00.030Z,54.53
2022-08-22T07:28:51.633Z,54.90
2022-08-22T07:31:38.442Z,54.33
2022-08-22T07:34:31.280Z,55.78
2022-08-22T07:37:26.352Z,54.14
2022-08-22T07:40:32.344Z,55.02
2022-08-22T07:43:06.360Z,55.22
2022-08-22T07:45:39.421Z,54.62
2022-08-22T07:48:11.433Z,54.58
2022-08-22T07:50:44.004Z,54.60
2022-08-22T07:53:25.980Z,54.70
2022-08-22T07:55:56.220Z,54.76
2022-08-22T07:58:27.272Z,52.94
2022-08-22T08:00:54.983Z,53.15
2022-08-22T08:03:25.208Z,53.16
2022-08-22T08:05:52.567Z,51.95
2022-08-22T08:08:25.761Z,53.25
2022-08-22T08:10:56.265Z,52.59
2022-08-22T08:13:35.364Z,52.06
2022-08-22T08:16:06.577Z,51.92
2022-08-22T08:18:36.228Z,51.16
2022-08-22T08:21:07.160Z,52.73
2022-08-22T08:23:45.128Z,52.22
2022-08-22T08:26:17.357Z,52.25
2022-08-22T08:28:55.390Z,52.66
2022-08-22T08:31:35.349Z,50.56
2022-08-22T08:34:10.660Z,52.08
2022-08-22T08:36:49.698Z,51.53
2022-08-22T08:39:23.052Z,50.17
2022-08-22T08:41:56.759Z,49.98
2022-08-22T08:44:56.577Z,50.73
2022-08-22T08:47:36.647Z,52.08
2022-08-22T08:50:25.324Z,52.56
2022-08-22T08:53:25.879Z,50.40
2022-08-22T08:56:25.774Z,52.53
2022-08-22T08:59:18.543Z,49.63
2022-08-22T09:02:20.472Z,47.85
2022-08-22T09:04:56.546Z,50.77
2022-08-22T09:07:48.457Z,48.20
2022-08-22T09:10:27.430Z,47.67
2022-08-22T09:13:23.682Z,46.67
2022-08-22T09:16:28.004Z,45.41
2022-08-22T09:19:44.280Z,45.61
2022-08-22T09:22:54.558Z,49.44
2022-08-22T09:25:38.394Z,49.84
2022-08-22T09:28:19.907Z,49.81
2022-08-22T09:31:01.861Z,50.95
2022-08-22T09:33:52.838Z,46.73
2022-08-22T09:36:26.931Z,49.40
2022-08-22T09:39:12.282Z,49.65
2022-08-22T09:41:51.707Z,47.03
2022-08-22T09:44:33.700Z,46.14
2022-08-22T09:47:31.297Z,46.41
2022-08-22T09:50:22.385Z,47.54
2022-08-22T09:53:04.911Z,48.16
2022-08-22T09:55:52.925Z,47.91
2022-08-22T09:58:19.713Z,46.77
2022-08-22T10:00:58.860Z,43.77
2022-08-22T10:03:46.941Z,44.73
2022-08-22T10:06:22.042Z,42.35
2022-08-22T10:09:05.603Z,45.56
2022-08-22T10:11:53.989Z,40.67
2022-08-22T10:14:29.383Z,40.35
2022-08-22T10:17:26.608Z,43.26
2022-08-22T10:20:11.618Z,43.52
2022-08-22T10:22:57.045Z,44.54
2022-08-22T10:25:53.037Z,45.32
2022-08-22T10:28:35.535Z,44.61
2022-08-22T10:31:27.041Z,43.61
2022-08-22T10:34:27.669Z,42.27
2022-08-22T10:37:12.804Z,43.13
2022-08-22T10:40:23.429Z,43.67
2022-08-22T10:43:06.801Z,38.76
2022-08-22T10:45:40.686Z,37.74
2022-08-22T10:48:23.771Z,38.78
2022-08-22T10:51:00.071Z,40.16
2022-08-22T10:53:53.184Z,39.94
2022-08-22T10:56:39.049Z,40.90
2022-08-22T10:59:29.365Z,35.57
2022-08-22T11:02:16.055Z,38.80
2022-08-22T11:05:08.435Z,39.70
2022-08-22T11:07:48.637Z,40.19
2022-08-22T11:10:29.059Z,39.06
2022-08-22T11:13:04.445Z,36.92
2022-08-22T11:15:56.454Z,40.20
2022-08-22T11:18:36.622Z,37.00
2022-08-22T11:21:10.555Z,37.86
2022-08-22T11:23:56.843Z,38.49
2022-08-22T11:26:47.336Z,38.22
2022-08-22T11:29:48.292Z,37.96
2022-08-22T11:32:51.269Z,31.53
2022-08-22T11:35:31.883Z,36.21
2022-08-22T11:38:01.706Z,38.12
2022-08-22T11:41:13.875Z,32.56
2022-08-22T11:44:17.914Z,31.21
2022-08-22T11:46:48.072Z,34.82
2022-08-22T11:49:36.458Z,35.15
2022-08-22T11:52:13.947Z,35.32
2022-08-22T11:55:04.066Z,34.29
2022-08-22T11:57:37.571Z,35.95
2022-08-22T12:00:10.756Z,37.38
2022-08-22T12:03:03.527Z,36.55
2022-08-22T12:05:35.946Z,30.82
2022-08-22T12:08:15.840Z,33.00
2022-08-22T12:10:56.567Z,35.04
2022-08-22T12:13:46.142Z,32.55
2022-08-22T12:16:39.992Z,33.96
2022-08-22T12:19:32.921Z,30.00
2022-08-22T12:22:49.892Z,34.58
2022-08-22T12:25:19.910Z,29.23
2022-08-22T12:27:55.166Z,30.30
2022-08-22T12:30:54.828Z,30.16
2022-08-22T12:33:33.069Z,30.09
2022-08-22T12:36:22.046Z,30.51
2022-08-22T12:39:20.010Z,28.75
2022-08-22T12:42:07.331Z,27.33
2022-08-22T12:45:12.180Z,31.92
2022-08-22T12:48:03.593Z,25.50
2022-08-22T12:50:47.942Z,30.44
2022-08-22T12:53:32.960Z,31.37
2022-08-22T12:56:26.384Z,33.50
2022-08-22T12:59:22.063Z,30.27
2022-08-22T13:01:52.837Z,27.18
2022-08-22T13:04:33.248Z,32.63
2022-08-22T13:07:25.306Z,33.36
2022-08-22T13:10:00.005Z,34.70
2022-08-22T13:12:39.969Z,35.83
2022-08-22T13:15:22.937Z,37.11
2022-08-22T13:17:54.695Z,36.24
2022-08-22T13:20:26.835Z,36.50
2022-08-22T13:22:56.060Z,35.19
2022-08-22T13:25:30.001Z,31.92
2022-08-22T13:28:03.723Z,32.41
2022-08-22T13:30:39.388Z,30.81
2022-08-22T13:33:11.255Z,31.04
2022-08-22T13:35:51.851Z,34.04
2022-08-22T13:38:26.552Z,31.64
2022-08-22T13:40:55.835Z,34.15
2022-08-22T13:43:27.726Z,31.94
2022-08-22T13:46:01.682Z,34.68
2022-08-22T13:48:50.924Z,30.90
2022-08-22T13:51:30.339Z,33.84
2022-08-22T13:54:40.167Z,31.87
2022-08-22T13:57:25.303Z,32.88
2022-08-22T14:00:06.097Z,35.45
2022-08-22T14:02:46.161Z,34.42
2022-08-22T14:05:33.262Z,35.52
2022-08-22T14:08:13.061Z,33.27
2022-08-22T14:10:55.089Z,36.48
2022-08-22T14:13:30.528Z,36.38
2022-08-22T14:16:10.470Z,35.60
2022-08-22T14:18:45.458Z,33.02
2022-08-22T14:21:45.443Z,36.67
2022-08-22T14:24:25.718Z,37.53
2022-08-22T14:27:06.556Z,37.86
2022-08-22T14:29:40.494Z,39.34
2022-08-22T14:32:37.777Z,39.11
2022-08-22T14:35:37.976Z,37.73
2022-08-22T14:38:32.571Z,38.61
2022-08-22T14:41:10.451Z,35.81
2022-08-22T14:44:02.002Z,32.15
2022-08-22T14:46:43.163Z,33.98
2022-08-22T14:49:13.672Z,38.92
2022-08-22T14:51:47.730Z,38.44
2022-08-22T14:54:21.419Z,37.00
2022-08-22T14:56:52.486Z,37.30
2022-08-22T14:59:34.895Z,36.04
2022-08-22T15:02:10.826Z,36.46
2022-08-22T15:04:49.920Z,32.02
2022-08-22T15:07:29.550Z,29.62
2022-08-22T15:10:33.160Z,30.17
2022-08-22T15:13:08.010Z,30.80
2022-08-22T15:15:52.572Z,32.51
2022-08-22T15:18:34.471Z,33.79
2022-08-22T15:21:12.357Z,32.79
2022-08-22T15:23:45.396Z,33.80
2022-08-22T15:26:23.041Z,34.15
2022-08-22T15:28:57.968Z,34.12
2022-08-22T15:31:25.456Z,32.22
2022-08-22T15:34:06.754Z,27.51
2022-08-22T15:36:34.088Z,31.61
2022-08-22T15:39:27.513Z,33.69
2022-08-22T15:41:55.527Z,35.29
2022-08-22T15:44:32.596Z,35.87
2022-08-22T15:46:59.814Z,33.62
2022-08-22T15:49:30.645Z,35.36
2022-08-22T15:52:00.992Z,36.02
2022-08-22T15:54:51.158Z,32.13
2022-08-22T15:57:23.497Z,34.22
2022-08-22T15:59:54.267Z,36.19
2022-08-22T16:02:42.440Z,37.07
2022-08-22T16:05:09.040Z,36.07
2022-08-22T16:07:49.977Z,33.82
2022-08-22T16:10:22.715Z,34.38
2022-08-22T16:13:11.622Z,34.11
2022-08-22T16:15:50.311Z,33.28
2022-08-22T16:18:33.375Z,33.83
2022-08-22T16:21:32.756Z,33.42
2022-08-22T16:24:00.832Z,36.44
2022-08-22T16:26:30.596Z,34.22
2022-08-22T16:29:18.015Z,35.36
2022-08-22T16:31:44.913Z,35.73
2022-08-22T16:34:20.612Z,35.66
2022-08-22T16:37:09.115Z,37.10
2022-08-22T16:39:41.072Z,34.61
2022-08-22T16:42:14.412Z,35.12
2022-08-22T16:44:45.464Z,37.46
2022-08-22T16:47:30.440Z,36.74
2022-08-22T16:50:22.368Z,37.97
2022-08-22T16:53:27.409Z,37.08
2022-08-22T16:56:38.469Z,37.29
2022-08-22T16:59:24.120Z,35.81
2022-08-22T17:02:07.221Z,37.76
2022-08-22T17:05:02.845Z,37.47
2022-08-22T17:07:38.449Z,37.49
2022-08-22T17:10:27.167Z,37.64
2022-08-22T17:13:15.159Z,37.36
2022-08-22T17:16:17.613Z,37.96
2022-08-22T17:19:02.242Z,35.65
2022-08-22T17:21:39.032Z,38.23
2022-08-22T17:24:33.590Z,39.02
2022-08-22T17:27:19.463Z,37.71
2022-08-22T17:30:10.663Z,38.98
2022-08-22T17:33:10.119Z,39.24
2022-08-22T17:35:45.267Z,38.45
2022-08-22T17:38:46.501Z,39.60
2022-08-22T17:41:40.912Z,39.90
2022-08-22T17:44:23.006Z,40.46
2022-08-22T17:47:08.449Z,40.28
2022-08-22T17:49:41.254Z,40.58
2022-08-22T17:52:17.007Z,40.61
2022-08-22T17:54:52.671Z,40.37
2022-08-22T17:57:31.188Z,40.57
2022-08-22T18:00:15.331Z,41.20
2022-08-22T18:02:52.216Z,41.23
2022-08-22T18:05:57.413Z,40.69
2022-08-22T18:11:40.167Z,41.30
2022-08-22T18:14:19.089Z,39.50
2022-08-22T18:16:52.821Z,40.66
2022-08-22T18:19:56.460Z,40.17
2022-08-22T18:22:32.100Z,39.67
2022-08-22T18:25:20.526Z,39.54
2022-08-22T18:27:53.950Z,40.45
2022-08-22T18:30:33.229Z,40.44
2022-08-22T18:33:23.481Z,39.17
2022-08-22T18:35:55.727Z,39.90
2022-08-22T18:38:55.698Z,40.99
2022-08-22T18:41:29.259Z,40.13
2022-08-22T18:43:59.949Z,40.61
2022-08-22T18:46:31.944Z,40.41
2022-08-22T18:49:15.629Z,39.30
2022-08-22T18:51:43.472Z,40.75
2022-08-22T18:54:13.520Z,39.69
2022-08-22T18:56:50.320Z,41.03
2022-08-22T18:59:36.062Z,40.32
2022-08-22T19:02:21.480Z,41.23
2022-08-22T19:05:17.693Z,41.54
2022-08-22T19:08:02.574Z,42.02
2022-08-22T19:10:34.464Z,41.67
2022-08-22T19:13:15.404Z,40.57
2022-08-22T19:16:04.887Z,41.70
2022-08-22T19:18:43.721Z,40.19
2022-08-22T19:21:37.742Z,41.60
2022-08-22T19:24:09.000Z,42.09
2022-08-22T19:26:42.492Z,42.75
2022-08-22T19:29:12.638Z,42.61
2022-08-22T19:31:41.229Z,42.25
2022-08-22T19:34:17.028Z,42.24
2022-08-22T19:36:45.668Z,42.55
2022-08-22T19:39:54.449Z,42.37
2022-08-22T19:42:21.382Z,43.38
2022-08-22T19:45:30.762Z,42.60
2022-08-22T19:48:11.722Z,42.38
2022-08-22T19:50:41.669Z,43.01
2022-08-22T19:53:34.611Z,42.16
2022-08-22T19:56:26.761Z,43.04
2022-08-22T19:59:04.535Z,42.42
2022-08-22T20:01:43.332Z,43.25
2022-08-22T20:04:39.410Z,41.97
2022-08-22T20:07:31.523Z,42.51
2022-08-22T20:10:05.309Z,41.93
2022-08-22T20:12:45.641Z,43.53
2022-08-22T20:15:19.149Z,43.51
2022-08-22T20:18:11.652Z,42.26
2022-08-22T20:20:38.293Z,42.23
2022-08-22T20:23:28.739Z,43.50
2022-08-22T20:25:57.128Z,43.07
2022-08-22T20:28:29.877Z,43.73
2022-08-22T20:31:03.402Z,42.87
2022-08-22T20:33:38.395Z,42.61
2022-08-22T20:36:13.861Z,43.23
2022-08-22T20:39:00.131Z,43.21
2022-08-22T20:41:30.061Z,43.87
2022-08-22T20:44:14.083Z,44.25
2022-08-22T20:46:43.520Z,43.89
2022-08-22T20:49:18.162Z,44.28
2022-08-22T20:51:54.250Z,43.40
2022-08-22T20:54:26.131Z,42.67
2022-08-22T20:56:56.004Z,44.43
2022-08-22T20:59:30.450Z,43.81
2022-08-22T21:02:24.321Z,44.99
2022-08-22T21:05:04.374Z,44.69
2022-08-22T21:07:39.939Z,44.58
2022-08-22T21:10:34.155Z,44.67
2022-08-22T21:13:04.425Z,44.12
2022-08-22T21:15:48.028Z,44.09
2022-08-22T21:18:34.190Z,44.43
2022-08-22T21:21:21.185Z,43.50
2022-08-22T21:24:01.197Z,44.64
2022-08-22T21:26:38.088Z,44.87
2022-08-22T21:29:12.195Z,44.85
2022-08-22T21:31:43.951Z,45.20
2022-08-22T21:34:17.282Z,44.64
2022-08-22T21:36:44.231Z,44.60
2022-08-22T21:39:31.352Z,44.80
2022-08-22T21:42:01.031Z,44.80
2022-08-22T21:44:30.768Z,44.72
2022-08-22T21:47:15.662Z,45.04
2022-08-22T21:50:13.895Z,44.56
2022-08-22T21:53:00.330Z,44.48
2022-08-22T21:55:39.018Z,44.60
2022-08-22T21:58:10.465Z,44.77
2022-08-22T22:01:04.022Z,45.00
2022-08-22T22:03:36.831Z,45.51
2022-08-22T22:06:06.264Z,45.97
2022-08-22T22:08:33.763Z,46.57
2022-08-22T22:11:06.202Z,47.20
2022-08-22T22:13:35.803Z,47.77
2022-08-22T22:16:02.634Z,47.53
2022-08-22T22:18:33.720Z,48.02
2022-08-22T22:21:00.880Z,47.91
2022-08-22T22:23:31.604Z,47.87
2022-08-22T22:26:02.635Z,47.74
2022-08-22T22:28:36.894Z,46.94
2022-08-22T22:31:05.143Z,47.49
2022-08-22T22:33:35.295Z,46.55
2022-08-22T22:36:18.311Z,46.17
2022-08-22T22:38:45.324Z,47.13
2022-08-22T22:41:12.836Z,47.64
2022-08-22T22:43:39.696Z,48.48
2022-08-22T22:46:06.743Z,48.88
2022-08-22T22:48:33.787Z,47.99
2022-08-22T22:51:07.654Z,46.31
2022-08-22T22:53:40.156Z,47.91
2022-08-22T22:56:10.133Z,48.54
2022-08-22T22:58:40.429Z,48.39
2022-08-22T23:01:13.338Z,48.86
2022-08-22T23:03:40.189Z,48.54
2022-08-22T23:06:28.663Z,49.07
2022-08-22T23:08:56.147Z,49.33
2022-08-22T23:11:27.127Z,49.41
2022-08-22T23:13:54.342Z,49.18
2022-08-22T23:16:24.524Z,48.84
2022-08-22T23:18:51.225Z,48.23
2022-08-22T23:21:20.548Z,48.48
2022-08-22T23:23:48.162Z,48.26
2022-08-22T23:26:16.016Z,48.18
2022-08-22T23:28:43.845Z,47.42
2022-08-22T23:31:16.905Z,48.32
2022-08-22T23:33:45.016Z,47.98
2022-08-22T23:36:19.808Z,47.64
2022-08-22T23:38:47.748Z,46.70
2022-08-22T23:41:17.716Z,47.12
2022-08-22T23:43:46.849Z,45.66
2022-08-22T23:46:15.442Z,47.48
2022-08-22T23:48:42.336Z,47.17
2022-08-22T23:51:14.605Z,47.17
2022-08-22T23:53:42.157Z,46.84
2022-08-22T23:56:23.714Z,46.65
2022-08-22T23:58:50.674Z,47.58
